Latest Weather Observations for Stawell

IDV60801

Issued at 7:02 pm EST Sunday 5 July 2015 (issued every 30 minutes, with the page automatically refreshed every 10 minutes)

About weather observations | Map of weather stations | Latest weather observations for VIC | Other Formats
Station Details ID: 079105 Name: STAWELL AERODROME Lat: -37.07 Lon: 142.74 Height: 235.36 m
Data from the previous 72 hours. | See also: Recent months at Stawell
Date/Time
EST
Temp
°C
App
Temp
°C
Dew
Point
Rel
Hum
%
Delta-T
°C
Wind Press
QNH
hPa
Press
MSL
hPa
Rain
since 9 am
mm
Dir
 
Spd
km/h
Gust
km/h
Spd
kts
Gust
kts
05/07:00pm 10.8 6.2 3.8 62 3.1 N 17 22 9 12 1016.6 - 0.0
05/06:30pm 10.9 7.1 4.1 63 3.1 N 13 19 7 10 1016.6 - 0.0
05/06:00pm 11.0 7.3 4.2 63 3.1 N 13 19 7 10 1016.4 1017.7 0.0
05/05:30pm 11.4 7.7 4.4 62 3.2 N 13 17 7 9 1016.4 - 0.0
05/05:00pm 11.9 7.8 4.4 60 3.4 N 15 19 8 10 1016.4 - 0.0
05/04:30pm 12.4 7.5 4.1 57 3.8 N 19 26 10 14 1016.4 - 0.0
05/04:00pm 12.4 8.3 4.6 59 3.6 N 15 19 8 10 1016.6 - 0.0
05/03:30pm 12.7 8.6 4.4 57 3.8 N 15 22 8 12 1016.7 - 0.0
05/03:00pm 13.2 8.2 4.6 56 4.0 NW 20 24 11 13 1016.7 1018.0 0.0
05/02:30pm 13.0 8.1 4.2 55 4.0 NNW 19 28 10 15 1016.9 - 0.0
05/02:00pm 12.6 7.5 4.1 56 3.9 NNW 20 26 11 14 1017.0 - 0.0
05/01:30pm 12.3 7.4 4.3 58 3.7 N 19 32 10 17 1017.5 - 0.0
05/01:00pm 12.1 7.3 4.8 61 3.4 NNW 19 26 10 14 1018.0 - 0.0
05/12:30pm 11.3 6.4 4.3 62 3.2 NNW 19 26 10 14 1018.5 - 0.0
05/12:00pm 10.5 6.0 4.2 65 2.8 NNW 17 24 9 13 1019.0 1020.3 0.0
05/11:30am 10.1 5.2 4.0 66 2.7 NW 19 24 10 13 1019.3 - 0.0
05/11:00am 8.9 4.3 3.7 70 2.3 N 17 22 9 12 1019.7 - 0.0
05/10:30am 8.4 4.2 3.7 72 2.1 N 15 20 8 11 1019.9 - 0.0
05/10:00am 7.3 3.0 3.5 77 1.6 N 15 20 8 11 1020.0 - 0.0
05/09:30am 6.2 2.6 3.0 80 1.3 N 11 17 6 9 1020.0 - 0.0
05/09:00am 6.0 3.2 3.2 82 1.2 NNE 7 13 4 7 1020.0 1021.3 0.0
05/08:30am 5.0 1.4 2.7 85 1.0 N 11 15 6 8 1019.9 - 0.0
05/08:00am 4.9 1.2 2.6 85 0.9 N 11 13 6 7 1019.9 - 0.0
05/07:30am 5.2 1.2 2.9 85 1.0 N 13 15 7 8 1019.9 - 0.0
05/07:00am 5.3 0.5 2.8 84 1.0 N 17 24 9 13 1019.7 - 0.0
05/06:30am 5.7 1.4 3.0 83 1.1 N 15 19 8 10 1019.6 - 0.0
05/06:00am 6.0 2.1 3.2 82 1.2 N 13 17 7 9 1019.6 1020.9 0.0
05/05:30am 6.1 2.2 3.3 82 1.2 N 13 17 7 9 1019.6 - 0.0
05/05:00am 6.4 3.3 3.4 81 1.3 N 9 13 5 7 1019.4 - 0.0
05/04:30am 6.5 3.3 3.3 80 1.4 N 9 13 5 7 1019.4 - 0.0
05/04:00am 6.2 3.7 3.5 83 1.2 N 6 9 3 5 1019.6 - 0.0
05/03:30am 6.3 3.6 3.5 82 1.2 N 7 9 4 5 1019.8 - 0.0
05/03:00am 6.8 4.3 3.8 81 1.3 N 6 9 3 5 1020.2 1021.5 0.0
05/02:30am 6.9 4.2 3.7 80 1.4 NNW 7 11 4 6 1020.3 - 0.0
05/02:00am 7.1 3.6 3.7 79 1.5 NNW 11 17 6 9 1020.3 - 0.0
05/01:30am 7.3 4.6 3.9 79 1.5 NNW 7 11 4 6 1020.4 - 0.0
05/01:00am 7.4 4.8 4.0 79 1.5 N 7 13 4 7 1020.5 - 0.0
05/12:30am 7.3 4.7 4.3 81 1.3 NW 7 11 4 6 1020.6 - 0.0
05/12:00am 7.5 3.8 4.3 80 1.4 N 13 19 7 10 1020.7 1022.0 0.0
 
Date/Time
EST
Temp
°C
App
Temp
°C
Dew
Point
Rel
Hum
%
Delta-T
°C
Wind Press
QNH
hPa
Press
MSL
hPa
Rain
since 9 am
mm
Dir
 
Spd
km/h
Gust
km/h
Spd
kts
Gust
kts
04/11:30pm 8.0 4.3 4.6 79 1.5 NNW 13 17 7 9 1020.7 - 0.0
04/11:00pm 8.3 5.0 4.5 77 1.7 N 11 17 6 9 1020.8 - 0.0
04/10:30pm 8.5 5.6 4.9 78 1.6 N 9 13 5 7 1020.8 - 0.0
04/10:00pm 8.8 6.0 5.2 78 1.6 N 9 11 5 6 1020.9 - 0.0
04/09:30pm 9.1 6.3 5.3 77 1.7 N 9 13 5 7 1021.0 - 0.0
04/09:00pm 9.4 6.7 5.4 76 1.8 N 9 13 5 7 1021.0 1022.3 0.0
04/08:30pm 9.7 7.1 5.9 77 1.8 NNE 9 11 5 6 1021.1 - 0.0
04/08:00pm 9.4 7.8 6.3 81 1.5 N 4 6 2 3 1021.2 - 0.0
04/07:30pm 9.7 8.5 6.6 81 1.5 W 2 6 1 3 1021.1 - 0.0
04/07:00pm 9.7 8.8 6.2 79 1.6 CALM 0 0 0 0 1021.0 - 0.0
04/06:30pm 9.9 9.0 6.2 78 1.7 CALM 0 0 0 0 1021.0 - 0.0
04/06:00pm 10.2 8.2 6.2 76 1.9 WNW 6 7 3 4 1020.8 1022.1 0.0
04/05:30pm 10.4 8.2 6.2 75 2.0 W 7 11 4 6 1020.7 - 0.0
04/05:00pm 10.7 8.4 5.9 72 2.3 WNW 7 11 4 6 1020.6 - 0.0
04/04:30pm 10.9 8.2 5.4 69 2.6 NNW 9 13 5 7 1020.7 - 0.0
04/04:00pm 10.9 8.5 5.4 69 2.6 NW 7 11 4 6 1021.0 - 0.0
04/03:30pm 10.9 7.3 5.0 67 2.7 NNW 13 17 7 9 1020.9 - 0.0
04/03:00pm 10.8 7.6 4.9 67 2.7 NW 11 17 6 9 1020.9 1022.2 0.0
04/02:30pm 10.6 7.4 5.2 69 2.5 NW 11 15 6 8 1021.0 - 0.0
04/02:00pm 10.0 6.0 5.0 71 2.3 NW 15 22 8 12 1021.3 - 0.0
04/01:30pm 9.8 5.8 5.0 72 2.2 NW 15 20 8 11 1021.5 - 0.0
04/01:00pm 9.7 5.7 5.1 73 2.1 NW 15 20 8 11 1021.7 - 0.0
04/12:30pm 9.8 5.8 4.8 71 2.3 NNW 15 20 8 11 1022.1 - 0.0
04/12:00pm 9.3 5.6 4.3 71 2.2 N 13 20 7 11 1022.6 1023.9 0.0
04/11:30am 9.0 5.6 4.2 72 2.1 N 11 17 6 9 1023.1 - 0.0
04/11:00am 7.9 4.0 3.4 73 1.9 N 13 20 7 11 1023.2 - 0.0
04/10:30am 7.4 4.2 3.1 74 1.8 N 9 15 5 8 1023.3 - 0.0
04/10:00am 6.9 3.7 3.2 77 1.6 N 9 13 5 7 1023.2 - 0.0
04/09:30am 6.3 3.1 2.8 78 1.5 N 9 13 5 7 1023.1 - 0.0
04/09:00am 6.1 2.8 2.7 79 1.4 NE 9 13 5 7 1022.9 1024.2 0.0
04/08:30am 5.8 2.9 2.4 79 1.4 NNE 7 9 4 5 1023.2 - 0.0
04/08:00am 5.6 2.9 2.6 81 1.2 NNE 6 7 3 4 1023.0 - 0.0
04/07:30am 5.4 2.4 2.2 80 1.3 N 7 9 4 5 1022.7 - 0.0
04/07:00am 5.3 3.6 2.1 80 1.3 CALM 0 7 0 4 1022.6 - 0.0
04/06:30am 5.3 2.3 2.0 79 1.3 N 7 9 4 5 1022.5 - 0.0
04/06:00am 5.2 2.4 1.9 79 1.3 ENE 6 9 3 5 1022.3 1023.7 0.0
04/05:30am 5.4 2.3 1.5 76 1.6 N 7 11 4 6 1022.3 - 0.0
04/05:00am 6.0 3.1 1.5 73 1.8 N 6 11 3 6 1022.0 - 0.0
04/04:30am 6.1 2.6 1.2 71 2.0 N 9 13 5 7 1022.0 - 0.0
04/04:00am 6.1 1.4 1.2 71 2.0 NNW 15 20 8 11 1021.9 - 0.0
04/03:30am 6.0 2.1 1.0 70 2.0 NNW 11 15 6 8 1022.2 - 0.0
04/03:00am 6.1 2.6 1.2 71 2.0 NNW 9 17 5 9 1022.6 1023.9 0.0
04/02:30am 5.7 1.8 1.4 74 1.7 NW 11 13 6 7 1022.8 - 0.0
04/02:00am 5.4 2.3 1.5 76 1.6 N 7 9 4 5 1022.9 - 0.0
04/01:30am 5.6 1.8 1.5 75 1.7 NW 11 15 6 8 1023.1 - 0.0
04/01:00am 5.5 2.0 1.4 75 1.6 NNW 9 11 5 6 1023.3 - 0.0
04/12:30am 5.3 3.2 1.6 77 1.5 NNW 2 6 1 3 1023.9 - 0.0
04/12:00am 5.2 2.8 2.0 80 1.3 NNE 4 6 2 3 1024.1 1025.4 0.0
 
Date/Time
EST
Temp
°C
App
Temp
°C
Dew
Point
Rel
Hum
%
Delta-T
°C
Wind Press
QNH
hPa
Press
MSL
hPa
Rain
since 9 am
mm
Dir
 
Spd
km/h
Gust
km/h
Spd
kts
Gust
kts
03/11:30pm 5.3 3.2 2.0 79 1.3 N 2 7 1 4 1024.1 - 0.0
03/11:00pm 5.5 3.0 1.8 77 1.5 N 4 9 2 5 1024.3 - 0.0
03/10:30pm 5.9 3.0 1.6 74 1.7 N 6 7 3 4 1024.3 - 0.0
03/10:00pm 5.0 2.2 1.8 80 1.3 NW 6 9 3 5 1024.5 - 0.0
03/09:30pm 5.9 3.4 1.6 74 1.7 N 4 7 2 4 1024.6 - 0.0
03/09:00pm 6.3 2.9 1.6 72 1.9 N 9 11 5 6 1024.6 1025.9 0.0
03/08:30pm 5.5 2.7 2.2 79 1.4 E 6 7 3 4 1024.6 - 0.0
03/08:00pm 5.7 2.9 2.0 77 1.5 NE 6 9 3 5 1024.6 - 0.0
03/07:30pm 6.1 4.1 2.4 77 1.5 NNE 2 6 1 3 1024.6 - 0.0
03/07:00pm 6.8 4.4 2.3 73 1.9 NNE 4 6 2 3 1024.7 - 0.0
03/06:30pm 6.9 4.1 2.0 71 2.0 NNE 6 7 3 4 1024.8 - 0.0
03/06:00pm 6.9 3.9 1.8 70 2.1 NNW 7 7 4 4 1024.9 1026.2 0.0
03/05:30pm 7.2 5.0 0.9 64 2.5 WSW 2 6 1 3 1024.9 - 0.0
03/05:00pm 7.8 4.8 0.8 61 2.8 W 6 11 3 6 1025.1 - 0.0
03/04:30pm 8.0 4.8 0.5 59 3.0 W 7 15 4 8 1025.3 - 0.0
03/04:00pm 8.2 4.2 0.4 58 3.1 WNW 11 17 6 9 1025.1 - 0.0
03/03:30pm 8.5 4.0 0.0 55 3.4 WNW 13 17 7 9 1025.2 - 0.0
03/03:00pm 8.8 4.7 0.0 54 3.5 WNW 11 17 6 9 1025.2 1026.5 0.0
03/02:30pm 8.9 4.0 -0.4 52 3.7 WNW 15 20 8 11 1025.1 - 0.0
03/02:00pm 9.4 5.0 0.6 54 3.6 WNW 13 22 7 12 1025.5 - 0.0
03/01:30pm 8.8 4.1 1.2 59 3.1 WNW 15 22 8 12 1026.0 - 0.0
03/01:00pm 8.7 4.4 0.9 58 3.2 NNW 13 19 7 10 1026.5 - 0.0
03/12:30pm 8.9 4.3 1.6 60 3.1 NNW 15 20 8 11 1026.9 - 0.0
03/12:00pm 8.7 4.6 2.1 63 2.8 NW 13 17 7 9 1027.4 1028.7 0.0
03/11:30am 8.3 5.1 3.2 70 2.2 WNW 9 11 5 6 1027.7 - 0.0
03/11:00am 7.9 6.0 2.6 69 2.2 N 2 9 1 5 1027.9 - 0.0
03/10:30am 7.1 5.3 3.2 76 1.7 N 2 6 1 3 1028.1 - 0.0
03/10:00am 5.9 4.5 3.6 85 1.0 CALM 0 0 0 0 1028.1 - 0.0
03/09:30am 3.6 2.1 3.2 97 0.2 CALM 0 0 0 0 1028.1 - 0.0
03/09:00am 1.2 -0.6 1.1 99 0.0 CALM 0 0 0 0 1028.2 1029.5 0.4
03/08:30am -0.5 -3.3 -0.6 99 0.0 SE 4 6 2 3 1028.3 - 0.4
03/08:00am -1.2 -4.5 -1.3 99 0.0 ESE 6 6 3 3 1028.2 - 0.4
03/07:30am -1.3 -4.2 -1.4 99 0.0 E 4 6 2 3 1028.1 - 0.4
03/07:00am -1.3 -4.8 -1.4 99 0.0 ESE 7 9 4 5 1027.8 - 0.4
03/06:30am -1.0 -4.8 -1.1 99 0.0 ESE 9 9 5 5 1027.6 - 0.4
03/06:00am -1.3 -4.8 -1.4 99 0.0 ESE 7 9 4 5 1027.5 1028.8 0.4
03/05:30am -0.7 -3.2 -0.8 99 0.0 ESE 2 6 1 3 1027.6 - 0.4
03/05:00am -0.8 -2.9 -0.9 99 0.0 CALM 0 9 0 5 1027.7 - 0.4
03/04:30am -0.2 -2.2 -0.3 99 0.0 CALM 0 9 0 5 1027.6 - 0.4
03/04:00am -0.4 -2.5 -0.7 98 0.1 CALM 0 6 0 3 1027.6 - 0.4
03/03:30am -0.1 -2.1 -0.4 98 0.1 CALM 0 2 0 1 1027.7 - 0.4
03/03:00am -0.1 -2.2 -0.5 97 0.1 CALM 0 0 0 0 1027.7 1029.0 0.4
03/02:30am 0.8 -1.9 0.4 97 0.1 NNW 4 7 2 4 1027.8 - 0.4
03/02:00am 0.6 -1.4 -0.1 95 0.3 CALM 0 0 0 0 1027.4 - 0.4
03/01:30am 2.3 -0.7 1.7 96 0.2 S 7 11 4 6 1027.4 - 0.4
03/01:00am 1.3 -2.3 0.9 97 0.2 SSE 9 13 5 7 1027.6 - 0.4
03/12:30am 1.8 0.0 1.4 97 0.2 CALM 0 7 0 4 1028.1 - 0.4
03/12:00am 2.3 0.2 1.6 95 0.3 E 2 6 1 3 1028.4 1029.7 0.4
 
Date/Time
EST
Temp
°C
App
Temp
°C
Dew
Point
Rel
Hum
%
Delta-T
°C
Wind Press
QNH
hPa
Press
MSL
hPa
Rain
since 9 am
mm
Dir
 
Spd
km/h
Gust
km/h
Spd
kts
Gust
kts
02/11:30pm 3.0 -0.3 2.4 96 0.2 SSW 9 11 5 6 1028.5 - 0.4
02/11:00pm 1.9 -1.3 0.9 93 0.4 SSW 7 9 4 5 1028.7 - 0.4
02/10:30pm 3.0 0.0 1.7 91 0.5 SW 7 9 4 5 1028.8 - 0.4
02/10:00pm 4.8 3.2 2.7 86 0.9 CALM 0 0 0 0 1028.7 - 0.4
02/09:30pm 5.9 3.5 2.4 78 1.4 SW 4 6 2 3 1028.5 - 0.4
02/09:00pm 5.9 2.6 2.2 77 1.5 S 9 11 5 6 1028.4 1029.7 0.4
02/08:30pm 5.7 2.3 1.8 76 1.6 S 9 11 5 6 1028.3 - 0.4
02/08:00pm 4.3 1.0 2.3 87 0.8 SSW 9 11 5 6 1028.1 - 0.4
02/07:30pm 3.7 0.6 1.1 83 1.0 SSW 7 9 4 5 1028.0 - 0.4

Other Formats:

Comma delimited format used in spreadsheet applications
http://www.bom.gov.au/fwo/IDV60801/IDV60801.94836.axf

JavaScript Object Notation format (JSON) in row-major order
http://www.bom.gov.au/fwo/IDV60801/IDV60801.94836.json